NCAR-RAP Real-Time Weather Data

Output produced by METARs form (26 May 2022  07:08 UTC)
found at http://weather.rap.ucar.edu/surface/
 
KSAV 260653Z AUTO 15006KT 10SM CLR 24/22 A3012 RMK AO2 SLP200 T02440217
KSAV 260553Z AUTO 13006KT 10SM CLR 24/21 A3014 RMK AO2 SLP204 T02390211 10267 20239 58002
KSAV 260453Z AUTO 14005KT 10SM CLR 24/21 A3014 RMK AO2 SLP207 T02440211 403110222
KSAV 260353Z 12006KT 10SM BKN240 25/21 A3015 RMK AO2 SLP207 LAST T02500211
KSAV 260253Z 11008KT 10SM FEW014 BKN240 25/22 A3014 RMK AO2 SLP206 T02500217 53003
KSAV 260153Z 11011KT 10SM SCT014 BKN240 25/22 A3013 RMK AO2 SLP202 T02500222
KSAV 260053Z 12010KT 10SM FEW036 BKN240 26/20 A3013 RMK AO2 SLP202 T02560200
KSAV 252353Z 13008KT 10SM FEW036 FEW055 BKN240 27/19 A3013 RMK AO2 SLP202 T02670189 10311 20267 53008
KSAV 252253Z 15013KT 10SM FEW036 SCT055 SCT240 28/19 A3012 RMK AO2 SLP200 T02780194
KSAV 252153Z 14010KT 10SM FEW037 SCT046 SCT240 29/19 A3011 RMK AO2 SLP195 T02940189
KSAV 252053Z COR 14011KT 10SM FEW038 SCT046 SCT240 30/19 A3011 RMK AO2 SLP194 T03000189 56012
KSAV 251953Z 13012G20KT 10SM SCT040 BKN240 29/19 A3012 RMK AO2 SLP197 T02890189
KSAV 251853Z 15012KT 10SM SCT036 BKN240 31/19 A3013 RMK AO2 SLP201 T03060189
KSAV 251753Z 15012G20KT 10SM SCT036 BKN240 31/19 A3014 RMK AO2 SLP206 T03060189 10306 20239 58006
KSAV 251653Z 17014KT 10SM SCT033 BKN065 BKN240 29/20 A3017 RMK AO2 SLP214 T02890200
KSAV 251553Z 15013KT 10SM BKN034 BKN240 30/20 A3017 RMK AO2 SLP216 T03000200
KSAV 251453Z 15011KT 10SM BKN030 BKN240 29/20 A3016 RMK AO2 SLP212 T02890200 50004
KSAV 251353Z 13008KT 10SM SCT026 BKN240 27/21 A3016 RMK AO2 SLP213 T02670206
KSAV 251253Z 11005KT 10SM FEW020 FEW045 BKN240 26/22 A3016 RMK AO2 SLP211 T02560217
KSAV 251153Z 00000KT 10SM FEW020 FEW042 BKN240 24/22 A3015 RMK AO2 SLP208 T02390217 10239 20222 51014
KSAV 251053Z 05005KT 10SM FEW020 SCT170 BKN250 22/21 A3014 RMK AO2 SLP205 T02220211
KSAV 250953Z 09003KT 10SM FEW005 FEW020 FEW250 23/21 A3012 RMK AO2 SLP199 T02280206
KSAV 250853Z AUTO 10004KT 10SM CLR 23/21 A3011 RMK AO2 SLP195 T02280211 55000
KSAV 250753Z AUTO 14005KT 10SM CLR 23/21 A3010 RMK AO2 SLP191 T02330211
KSAV 250653Z AUTO 11003KT 10SM CLR 23/22 A3010 RMK AO2 SLP193 T02330217
KSAV 250553Z AUTO 10003KT 10SM CLR 24/22 A3011 RMK AO2 SLP195 T02390217 10267 20239 58001
KSAV 250453Z AUTO 14003KT 10SM CLR 24/22 A3012 RMK AO2 SLP198 T02390222 403110206
KSAV 250353Z 17003KT 10SM SCT250 24/22 A3012 RMK AO2 SLP198 LAST T02440222
KSAV 250253Z 14004KT 10SM BKN250 24/22 A3011 RMK AO2 SLP196 T02440222 53022
KSAV 250153Z 16006KT 10SM SCT150 BKN250 25/22 A3009 RMK AO2 SLP189 T02500217
KSAV 250053Z 15007KT 10SM SCT150 BKN250 26/22 A3007 RMK AO2 SLP181 T02560217
KSAV 242353Z 15008KT 10SM BKN150 BKN250 27/21 A3005 RMK AO2 SLP174 60000 T02670206 10306 20267 50004
KSAV 242253Z 18008KT 10SM BKN150 BKN250 28/20 A3006 RMK AO2 SLP178 CB DSNT W AND NW MOV N T02780200
KSAV 242153Z 17012KT 10SM FEW035 SCT150 SCT200 29/19 A3004 RMK AO2 LTG DSNT W AND NW SLP172 CB DSNT W-NW MOV N T02890194
KSAV 242053Z 16013KT 10SM FEW042 SCT150 SCT200 31/19 A3003 RMK AO2 LTG DSNT W AND NW SLP170 CB DSNT NE AND SW AND NW 60000 T03060194 58014
KSAV 242039Z 17014KT 10SM FEW042 BKN110 BKN250 31/19 A3004 RMK AO2 LTG DSNT W AND NW CB DSNT NE AND SW AND NW T03060189
KSAV 241953Z 16011KT 10SM FEW042 BKN110 BKN250 28/21 A3005 RMK AO2 LTG DSNT N AND NE RAB06E26 TSE03 SLP176 CB DSNT N AND NE AND NW MOV N P0000 T02830206
KSAV 241941Z 17011KT 10SM BKN030 BKN080 BKN250 29/21 A3006 RMK AO2 LTG DSNT N AND NE RAB06E26 TSE03 CB DSNT N AND NE AND NW MOV N P0000 T02890206
KSAV 241905Z 16012KT 10SM VCTS BKN030CB BKN080 BKN250 29/21 A3006 RMK AO2 LTG DSNT W TSE03 CB W MOV N AND DSNT SW T02890211
KSAV 241853Z 17013KT 10SM TS BKN030CB BKN080 BKN250 29/21 A3006 RMK AO2 LTG DSNT SW TSB48 SLP180 OCNL LTGICCC SW TS SW MOV N CB DSNT SW T02890211
KSAV 241840Z 17015KT 10SM VCTS BKN037CB BKN080 BKN250 31/22 A3007 RMK AO2 CB SW MOV N AND DSNT SW T03060217
KSAV 241753Z 17008KT 10SM BKN037 BKN080 BKN250 31/22 A3008 RMK AO2 SLP184 T03110222 10311 20233 58004
KSAV 241653Z 19007KT 10SM SCT032 BKN250 31/21 A3009 RMK AO2 SLP187 T03110211
KSAV 241628Z 19004KT 10SM BKN032 BKN170 BKN250 31/21 A3009 RMK AO2 T03060211
KSAV 241553Z 18008KT 10SM BKN029 BKN065 BKN250 29/21 A3009 RMK AO2 SLP189 T02940211
KSAV 241453Z 16007KT 10SM SCT021 SCT170 BKN250 28/22 A3009 RMK AO2 SLP188 T02830222 50003
KSAV 241353Z 20007KT 10SM SCT013 OVC250 27/22 A3009 RMK AO2 SLP188 T02720222
KSAV 241253Z 19007KT 10SM FEW008 BKN050 BKN250 26/23 A3009 RMK AO2 SLP187 T02560228
KSAV 241153Z 00000KT 10SM FEW015 FEW170 OVC250 23/22 A3008 RMK AO2 SLP184 70055 T02330217 10233 20206 53012
KSAV 241053Z 00000KT 8SM BCFG FEW015 FEW170 OVC250 21/21 A3007 RMK AO2 SLP180 T02110206
KSAV 240953Z 00000KT 10SM MIFG FEW180 FEW250 22/21 A3004 RMK AO2 SLP172 T02170206
KSAV 240853Z AUTO 00000KT 5SM BR CLR 21/20 A3004 RMK AO2 SLP172 T02110200 56012
KSAV 240753Z AUTO 00000KT 10SM CLR 21/20 A3005 RMK AO2 SLP173 T02110200